CheckWX is a tool to help pilots better visualize weather data.  It is not intended as a substitute for an official pre-flight weather briefing.

20:35:09 UTC

KTMA METAR
Henry Tift Myers Airport
Tifton, Georgia, USA
Current

20 mins ago

KTMA 232015Z AUTO 25007KT 10SM CLR 28/08 A3006 RMK AO2 T02840076
Observed
Apr-23 @ 20:15 UTC
Wind
  • 250° at 7 KTS
Visibility
10 SM
Flight Rules
VFR
Cloud Levels
  • Clear skies
Temperature
28°C / 82°F
Dewpoint
C / 46°F
Humidity
28%
Altimeter
30.06" Hg
Pressure
1017.92 hPa
Previous

40 mins ago

KTMA 231955Z AUTO 23003KT 10SM CLR 29/08 A3007 RMK AO2 T02870076
Observed
Apr-23 @ 19:55 UTC
Wind
  • 230° at 3 KTS
Visibility
10 SM
Flight Rules
VFR
Cloud Levels
  • Clear skies
Temperature
29°C / 84°F
Dewpoint
C / 46°F
Humidity
27%
Altimeter
30.07" Hg
Pressure
1018.32 hPa
Previous

60 mins ago

KTMA 231935Z AUTO 26005KT 10SM CLR 29/07 A3008 RMK AO2 T02890072
Observed
Apr-23 @ 19:35 UTC
Wind
  • 260° at 5 KTS
Visibility
10 SM
Flight Rules
VFR
Cloud Levels
  • Clear skies
Temperature
29°C / 84°F
Dewpoint
C / 45°F
Humidity
25%
Altimeter
30.08" Hg
Pressure
1018.62 hPa